• Join FlightAware (Why Join?)
  • Login
  • US Flag 
04:57AM EDT


 

Airport Tracker/Info


-or-


 

Live Flight TrackerFlight Track Log ✈ UCA3597 ✈ 12-Dec-2013 ✈ KBGM - KIAD

Flight Track Log - Related Links

Times and Time Zones

All times are in EST time to prevent confusion due to time zone crossing. See the UCA3597 flight status page for this flight to view local times or setup timezone preferences in your user account.

Time Position Orientation Groundspeed Altitude Reporting Facility
EST Latitude Longitude Course Direction KTS MPH feet Rate Location/Type
07:15PM 42.1922 -76.0244 211° Southwest 255 293 4,700  Level New York Center
07:16PM 42.1575 -76.0553 213° Southwest 128 147 6,600 1,920 Climbing New York Center
07:17PM 42.1269 -76.0919 222° Southwest 140 161 8,600 2,040 Climbing New York Center
07:18PM 42.0942 -76.1256 217° Southwest 145 167 10,700 1,980 Climbing New York Center
07:19PM 42.0514 -76.1500 203° Southwest 157 181 12,600 1,800 Climbing New York Center
07:20PM 42.0086 -76.1744 203° Southwest 178 205 14,400 1,680 Climbing New York Center
07:21PM 41.8147 -76.1667 211° Southwest  Level Estimated
07:21PM 41.9594 -76.2039 204° Southwest 178 205 16,000  Level New York Center
07:22PM 41.8994 -76.2408 205° Southwest 214 246 16,000  Level New York Center
07:23PM 41.8372 -76.2775 204° Southwest 256 295 16,000 -60 Level New York Center
07:24PM 41.7711 -76.3164 204° Southwest 266 306 15,900  Descending New York Center
07:25PM 41.6961 -76.3603 204° Southwest 266 306 16,000  Climbing New York Center
07:26PM 41.6297 -76.3992 204° Southwest 261 300 16,000  Level New York Center
07:27PM 41.5611 -76.4378 203° Southwest 261 300 16,000  Level New York Center
07:28PM 41.5011 -76.4714 203° Southwest 261 300 16,000  Level New York Center
07:29PM 41.4325 -76.5128 204° Southwest 261 300 16,000  Level New York Center
07:30PM 41.3619 -76.5536 203° Southwest 261 300 16,000  Level New York Center
07:31PM 41.2911 -76.5944 203° Southwest 261 300 16,000  Level New York Center
07:32PM 41.2331 -76.6281 204° Southwest 261 300 16,000  Level New York Center
07:33PM 41.1644 -76.6692 204° Southwest 261 300 16,000  Level New York Center
07:34PM 41.0978 -76.7100 205° Southwest 261 300 16,000  Level New York Center
07:35PM 41.0314 -76.7483 204° Southwest 261 300 16,000  Level New York Center
07:36PM 40.9647 -76.7864 203° Southwest 261 300 16,000 -60 Level New York Center
07:37PM 40.8961 -76.8244 203° Southwest 261 300 15,900 -60 Descending New York Center
07:38PM 40.8231 -76.8672 204° Southwest 261 300 15,900  Level New York Center
07:39PM 40.7572 -76.8942 197° South 266 306 15,900  Level New York Center
07:40PM 40.6744 -76.9197 193° South 277 319 16,000  Climbing New York Center
07:41PM 40.6086 -76.9439 196° South 277 319 16,000  Level New York Center
07:42PM 40.5242 -76.9664 191° South 282 325 16,000  Level New York Center
07:43PM 40.4564 -76.9875 193° South 282 325 16,000 -180 Level New York Center
07:44PM 40.3758 -77.0131 194° South 282 325 15,700 -660 Descending New York Center
07:45PM 40.3056 -77.0367 194° South 288 331 14,700 -1,140 Descending New York Center
07:46PM 40.2167 -77.0639 193° South 294 338 13,500 -1,200 Descending New York Center
07:48PM 40.1000 -77.1000 193° South 290 334 11,700 -1,200 Descending Potomac TRACON
07:49PM 40.0333 -77.1167 191° South 287 330 10,400 -1,380 Descending Potomac TRACON
07:50PM 39.9500 -77.1500 197° South 282 325 9,100 -720 Descending Potomac TRACON
07:51PM 39.8667 -77.1667 189° South 268 308 9,000 -180 Descending Potomac TRACON
07:52PM 39.8167 -77.2000 207° Southwest 264 304 8,800 -480 Descending Potomac TRACON
07:53PM 39.7833 -77.2667 237° Southwest 229 264 8,100 -420 Descending Potomac TRACON
07:54PM 39.7500 -77.3333 237° Southwest 228 262 8,000 -120 Descending Potomac TRACON
07:55PM 39.7000 -77.3667 207° Southwest 236 272 7,900 -60 Descending Potomac TRACON
07:56PM 39.6000 -77.3667 180° South 267 307 7,900 -360 Level Potomac TRACON
07:57PM 39.5333 -77.3667 180° South 267 307 7,200 -720 Descending Potomac TRACON
07:58PM 39.4500 -77.3667 180° South 262 302 6,500 -600 Descending Potomac TRACON
07:59PM 39.3833 -77.3667 180° South 259 298 6,000 -600 Descending Potomac TRACON
08:00PM 39.3167 -77.3667 180° South 259 298 5,400 -540 Descending Potomac TRACON
08:01PM 39.2500 -77.3667 180° South 257 296 5,000 -480 Descending Potomac TRACON
08:02PM 39.1833 -77.3667 180° South 256 295 4,500 -540 Descending Potomac TRACON
08:03PM 39.1000 -77.3500 171° South 248 285 4,000 -300 Descending Potomac TRACON
08:04PM 39.0333 -77.3500 180° South 236 272 3,900 -360 Descending Potomac TRACON
08:05PM 38.9667 -77.3500 180° South 239 275 3,300 -480 Descending Potomac TRACON
08:06PM 38.9000 -77.3500 180° South 227 261 3,000 -180 Descending Potomac TRACON
08:07PM 38.8500 -77.3667 195° South 223 257 3,000 -540 Level Potomac TRACON
08:08PM 38.8167 -77.3833 201° Southwest 171 197 2,000 -540 Descending Potomac TRACON
08:09PM 38.8333 -77.4167 303° West 142 163 2,000 -360 Level Potomac TRACON
08:10PM 38.8833 -77.4333 345° North 124 143 1,300 -660 Descending Potomac TRACON
08:11PM 38.9000 -77.4333 360° North 115 132 700 -660 Descending Potomac TRACON
08:13PM 38.9333 -77.4500 349° North  Level FlightAware Approximate
08:20PM 38.9474 -77.4599 349° North  Level Estimated